KBAM/BAM METAR and TAF weather

Enter ICAO airport designator
Station Type Date Time Source
KBAM METAR 2019/05/26 01:15 UTC NOAA

KBAM 260115Z AUTO 15004KT 10SM SCT100 13/06 A2982 RMK AO1


Station Type Date Time Source
KBAM Decoded METAR 2019/05/26 01:15 UTC NOAA

Station name not available
May 25, 2019 - 09:15 PM EDT / 2019.05.26 0115 UTC
Wind: from the SSE (150 degrees) at 5 MPH (4 KT):0
Visibility: 10 mile(s):0
Sky conditions: partly cloudy
Temperature: 55 F (13 C)
Dew Point: 42 F (6 C)
Relative Humidity: 62%
Pressure (altimeter): 29.82 in. Hg (1009 hPa)
ob: KBAM 260115Z AUTO 15004KT 10SM SCT100 13/06 A2982 RMK AO1
cycle: 1

Station Type Date Time Source
KBAM TAF 2019/05/25 18:36 UTC NOAA

TAF KBAM 251734Z 2518/2618 VRB06KT P6SM VCSH SCT060 BKN120
FM251900 18008KT P6SM -SHRA VCTS SCT060CB BKN150
FM260300 15010G20KT P6SM -SHRA SCT070 BKN150
FM260800 12008KT P6SM -SHRA BKN120
FM261500 05012G22KT 6SM -SHRA VCTS BKN070CB

Example: see airport list